Time;durP1;ratioP1;P1;durP2;ratioP2;P2;SDS_P1;SDS_P2;PMS_P1;PMS_P2;Temp;Humidity;BMP_temperature;BMP_pressure;BME280_temperature;BME280_humidity;BME280_pressure;Samples;Min_cycle;Max_cycle;Signal;HPM_P1;HPM_P2
2023/05/19 00:00:46;;;;;;;14.80;7.88;;;;;;;7.92;100.00;162636.72;5075244;28;20060;-61
2023/05/19 00:03:11;;;;;;;11.93;8.73;;;;;;;7.90;100.00;162631.31;5076774;28;20020;-61
2023/05/19 00:05:44;;;;;;;12.40;6.75;;;;;;;7.87;100.00;162621.88;5075012;28;20044;-61
2023/05/19 00:08:10;;;;;;;11.18;9.32;;;;;;;7.84;100.00;162613.78;5076786;28;20029;-62
2023/05/19 00:10:36;;;;;;;16.85;9.30;;;;;;;7.82;100.00;162609.75;5075073;28;20044;-62
2023/05/19 00:13:01;;;;;;;14.13;8.05;;;;;;;7.82;100.00;162609.75;5076249;28;20020;-61
2023/05/19 00:15:27;;;;;;;13.55;8.05;;;;;;;7.80;100.00;162604.34;5074974;28;20074;-61
2023/05/19 00:17:54;;;;;;;11.45;7.05;;;;;;;7.79;100.00;162601.66;5076848;28;20021;-62
2023/05/19 00:20:20;;;;;;;18.23;8.73;;;;;;;7.77;100.00;162596.28;5075092;28;20055;-61
2023/05/19 00:22:45;;;;;;;15.05;8.57;;;;;;;7.71;100.00;162581.47;5075221;28;20082;-62
2023/05/19 00:25:11;;;;;;;11.57;8.90;;;;;;;7.66;100.00;162566.63;5055330;28;20499;-62
2023/05/19 00:27:36;;;;;;;16.38;8.05;;;;;;;7.61;100.00;162554.50;5053372;28;20388;-61
2023/05/19 00:30:01;;;;;;;10.38;6.80;;;;;;;7.55;100.00;162539.72;5064241;28;20040;-61
2023/05/19 00:32:27;;;;;;;15.80;6.50;;;;;;;7.57;100.00;162543.75;5073204;28;20032;-62
2023/05/19 00:34:52;;;;;;;13.05;7.10;;;;;;;7.55;100.00;162539.72;5071683;28;20040;-60
2023/05/19 00:37:17;;;;;;;12.75;7.65;;;;;;;7.54;100.00;162535.63;5073286;28;20024;-60
2023/05/19 00:39:43;;;;;;;13.00;6.93;;;;;;;7.53;100.00;162534.31;5071627;28;20048;-60
2023/05/19 00:42:08;;;;;;;12.55;8.13;;;;;;;7.52;100.00;162531.59;5073142;28;20024;-60
2023/05/19 00:44:38;;;;;;;12.98;7.25;;;;;;;7.52;100.00;162531.59;5071665;28;20041;-60
2023/05/19 00:47:04;;;;;;;14.70;7.97;;;;;;;7.43;100.00;162508.72;5073217;28;20020;-60
2023/05/19 00:49:29;;;;;;;12.50;7.50;;;;;;;7.50;100.00;162526.19;5071179;28;20100;-60
2023/05/19 00:51:55;;;;;;;14.68;8.40;;;;;;;7.50;100.00;162526.19;5073022;28;20028;-60
2023/05/19 00:54:20;;;;;;;13.60;7.82;;;;;;;7.50;100.00;162526.19;5071719;28;20050;-60
2023/05/19 00:56:45;;;;;;;16.00;9.27;;;;;;;7.50;100.00;162524.88;5072742;28;20025;-61
2023/05/19 00:59:11;;;;;;;14.68;7.05;;;;;;;7.46;100.00;162515.44;5071390;28;20763;-62
2023/05/19 01:01:37;;;;;;;22.50;7.82;;;;;;;7.43;100.00;162507.34;5072661;28;20101;-62
2023/05/19 01:04:04;;;;;;;22.15;9.55;;;;;;;7.41;100.00;162502.00;5070974;28;20040;-62
2023/05/19 01:06:29;;;;;;;40.63;10.63;;;;;;;7.38;100.00;162493.91;5072778;28;20024;-62
2023/05/19 01:08:56;;;;;;;18.05;9.93;;;;;;;7.36;100.00;162489.88;5071343;28;20032;-62
2023/05/19 01:11:21;;;;;;;21.10;9.02;;;;;;;7.34;100.00;162483.09;5072659;28;20021;-62
2023/05/19 01:13:47;;;;;;;11.35;7.78;;;;;;;7.34;100.00;162483.09;5071463;28;20430;-63
2023/05/19 01:16:39;;;;;;;15.65;8.15;;;;;;;7.32;100.00;162477.75;5072769;28;20056;-62
2023/05/19 01:19:35;;;;;;;18.00;8.93;;;;;;;7.29;100.00;162472.34;5070759;28;20043;-62
2023/05/19 01:22:26;;;;;;;20.25;9.05;;;;;;;7.27;100.00;162465.63;5072583;28;20016;-62
2023/05/19 01:25:11;;;;;;;20.85;9.40;;;;;;;7.24;100.00;162457.50;5070641;28;20368;-63
2023/05/19 01:28:05;;;;;;;15.90;8.55;;;;;;;7.20;100.00;162448.06;5071987;28;20541;-62
2023/05/19 01:30:39;;;;;;;15.00;7.93;;;;;;;7.19;100.00;162444.06;5070783;28;20438;-62
2023/05/19 01:33:08;;;;;;;18.25;9.80;;;;;;;7.16;100.00;162437.31;5072452;28;20024;-62
2023/05/19 01:35:36;;;;;;;21.70;11.43;;;;;;;7.13;100.00;162429.22;5070317;28;20037;-62
2023/05/19 01:38:03;;;;;;;11.55;9.80;;;;;;;7.11;100.00;162423.88;5072046;28;20495;-62
2023/05/19 01:40:29;;;;;;;17.60;9.73;;;;;;;7.06;100.00;162411.75;5070055;28;20094;-62
2023/05/19 01:42:58;;;;;;;13.90;10.25;;;;;;;7.06;100.00;162410.38;5072421;28;20024;-62
2023/05/19 01:45:24;;;;;;;15.13;9.13;;;;;;;7.03;100.00;162402.31;5070658;28;20032;-63
2023/05/19 01:47:54;;;;;;;16.73;9.38;;;;;;;7.01;100.00;162396.91;5071479;28;20028;-62
2023/05/19 01:50:20;;;;;;;19.80;10.70;;;;;;;6.97;100.00;162387.50;5070277;28;20048;-63
2023/05/19 01:52:46;;;;;;;13.07;9.80;;;;;;;6.94;100.00;162380.78;5069864;28;20132;-62
2023/05/19 01:55:11;;;;;;;22.13;12.40;;;;;;;6.90;100.00;162369.97;5069798;28;20045;-63
2023/05/19 01:58:08;;;;;;;16.65;10.02;;;;;;;6.90;100.00;162369.97;5071896;28;20029;-63
2023/05/19 02:00:51;;;;;;;16.95;10.70;;;;;;;6.87;100.00;162361.91;5070036;28;20056;-63
2023/05/19 02:03:48;;;;;;;12.35;9.77;;;;;;;6.80;100.00;162343.06;5071749;28;20035;-63
2023/05/19 02:06:48;;;;;;;14.25;10.52;;;;;;;6.81;100.00;162345.78;5070482;28;20491;-63
2023/05/19 02:09:36;;;;;;;20.98;10.40;;;;;;;6.79;100.00;162340.38;5069679;28;20063;-62
2023/05/19 02:12:10;;;;;;;13.80;10.13;;;;;;;6.71;100.00;162320.16;5071589;28;20035;-62
2023/05/19 02:14:43;;;;;;;19.83;11.13;;;;;;;6.65;100.00;162305.38;5069984;28;20036;-62
2023/05/19 02:17:11;;;;;;;19.65;10.95;;;;;;;6.62;100.00;162297.28;5071061;28;20040;-63
2023/05/19 02:19:41;;;;;;;18.63;12.53;;;;;;;6.60;100.00;162291.88;5069715;28;20039;-63
2023/05/19 02:22:06;;;;;;;24.73;9.88;;;;;;;6.57;100.00;162283.81;5071107;28;20044;-63
2023/05/19 02:24:31;;;;;;;12.02;9.45;;;;;;;6.56;100.00;162279.75;5069377;28;20040;-62
2023/05/19 02:26:57;;;;;;;18.05;10.85;;;;;;;6.46;100.00;162255.56;5071340;28;20012;-62
2023/05/19 02:29:22;;;;;;;24.42;11.32;;;;;;;6.52;100.00;162270.31;5069792;28;20571;-61
2023/05/19 02:31:47;;;;;;;26.52;13.60;;;;;;;6.53;100.00;162273.03;5070618;28;20031;-61
2023/05/19 02:34:13;;;;;;;28.30;12.18;;;;;;;6.53;100.00;162273.03;5069676;28;20139;-61
2023/05/19 02:36:41;;;;;;;16.10;9.90;;;;;;;6.52;100.00;162270.31;5070447;28;20025;-62
2023/05/19 02:39:07;;;;;;;15.13;11.05;;;;;;;6.50;100.00;162264.97;5069625;28;20127;-61
2023/05/19 02:41:33;;;;;;;15.98;9.95;;;;;;;6.45;100.00;162252.84;5070883;28;20108;-62
2023/05/19 02:43:58;;;;;;;21.42;11.45;;;;;;;6.39;100.00;162235.34;5069450;28;20040;-60
2023/05/19 02:46:24;;;;;;;18.40;10.82;;;;;;;6.37;100.00;162231.31;5070687;28;20013;-60
2023/05/19 02:48:50;;;;;;;20.30;11.65;;;;;;;6.39;100.00;162236.72;5069266;28;20045;-61
2023/05/19 02:51:15;;;;;;;16.58;12.02;;;;;;;6.37;100.00;162231.31;5070244;28;20025;-61
2023/05/19 02:53:40;;;;;;;16.92;10.65;;;;;;;6.35;100.00;162227.28;5068730;28;20028;-61
2023/05/19 02:56:06;;;;;;;20.40;10.77;;;;;;;6.29;100.00;162211.09;5071170;28;20079;-60
2023/05/19 02:58:31;;;;;;;22.85;11.07;;;;;;;6.28;100.00;162207.06;5069106;28;20020;-60
2023/05/19 03:00:56;;;;;;;18.17;10.77;;;;;;;6.30;100.00;162213.78;5070446;28;20102;-60
2023/05/19 03:03:22;;;;;;;24.92;12.57;;;;;;;6.30;100.00;162213.78;5070720;28;20025;-60
2023/05/19 03:05:47;;;;;;;20.88;14.07;;;;;;;6.28;100.00;162208.44;5069136;28;20029;-61
2023/05/19 03:08:12;;;;;;;20.95;11.75;;;;;;;6.24;100.00;162197.66;5070513;28;20024;-61
2023/05/19 03:10:38;;;;;;;16.73;12.88;;;;;;;6.24;100.00;162197.66;5068627;28;20047;-61
2023/05/19 03:13:03;;;;;;;22.05;13.10;;;;;;;6.24;100.00;162197.66;5071128;28;20040;-60
2023/05/19 03:15:29;;;;;;;26.48;12.85;;;;;;;6.22;100.00;162192.25;5068793;28;20047;-61
2023/05/19 03:17:55;;;;;;;23.77;11.18;;;;;;;6.17;100.00;162180.19;5070514;28;20067;-60
2023/05/19 03:20:20;;;;;;;20.10;12.77;;;;;;;6.19;100.00;162184.22;5069347;28;20388;-61
2023/05/19 03:22:46;;;;;;;18.17;11.45;;;;;;;6.14;100.00;162170.75;5070390;28;20028;-61
2023/05/19 03:25:11;;;;;;;26.42;11.80;;;;;;;6.17;100.00;162178.81;5068892;28;20406;-61
2023/05/19 03:27:36;;;;;;;20.40;12.65;;;;;;;6.14;100.00;162172.09;5070428;28;20081;-60
2023/05/19 03:30:02;;;;;;;26.45;13.82;;;;;;;6.13;100.00;162169.38;5069020;28;20033;-61
2023/05/19 03:32:27;;;;;;;28.10;11.65;;;;;;;6.12;100.00;162165.38;5070270;28;20028;-60
2023/05/19 03:34:53;;;;;;;14.23;10.95;;;;;;;6.09;100.00;162158.66;5068752;28;20052;-61
2023/05/19 03:37:18;;;;;;;19.42;11.30;;;;;;;6.09;100.00;162157.28;5070338;28;20028;-60
2023/05/19 03:39:43;;;;;;;25.83;11.95;;;;;;;6.09;100.00;162157.28;5068415;28;20077;-60
2023/05/19 03:42:09;;;;;;;22.40;12.05;;;;;;;6.07;100.00;162151.94;5070642;28;20028;-60
2023/05/19 03:44:34;;;;;;;19.45;10.90;;;;;;;6.03;100.00;162143.84;5068720;28;20047;-63
2023/05/19 03:46:59;;;;;;;23.88;12.60;;;;;;;5.97;100.00;162127.63;5069671;28;20017;-62
2023/05/19 03:49:25;;;;;;;14.82;10.45;;;;;;;5.89;100.00;162106.09;5068897;28;20037;-62
2023/05/19 03:51:50;;;;;;;19.83;10.93;;;;;;;5.85;100.00;162095.31;5070334;28;20024;-63
2023/05/19 03:54:16;;;;;;;18.20;11.05;;;;;;;5.80;100.00;162081.88;5068623;28;20037;-63
2023/05/19 03:56:42;;;;;;;18.85;11.20;;;;;;;5.81;100.00;162085.88;5070023;28;20032;-63
2023/05/19 03:59:09;;;;;;;20.20;12.30;;;;;;;5.81;100.00;162084.56;5068655;28;20111;-61
2023/05/19 04:01:35;;;;;;;20.52;12.38;;;;;;;5.83;100.00;162091.28;5069305;28;20040;-62
2023/05/19 04:04:01;;;;;;;24.27;13.30;;;;;;;5.79;100.00;162079.16;5071775;28;20040;-59
2023/05/19 04:06:26;;;;;;;18.35;13.10;;;;;;;5.90;100.00;162108.81;5073627;28;20024;-60
2023/05/19 04:08:51;;;;;;;25.63;13.68;;;;;;;5.95;100.00;162122.25;5070444;28;20044;-62
2023/05/19 04:11:18;;;;;;;18.92;11.85;;;;;;;5.98;100.00;162130.34;5073844;28;20494;-59
2023/05/19 04:13:44;;;;;;;16.17;12.52;;;;;;;6.08;100.00;162154.56;5071853;28;20044;-59
2023/05/19 04:16:09;;;;;;;22.70;12.75;;;;;;;6.14;100.00;162170.75;5073009;28;20033;-60
2023/05/19 04:18:35;;;;;;;19.90;12.68;;;;;;;6.21;100.00;162188.22;5072201;28;20032;-59
2023/05/19 04:21:00;;;;;;;26.48;14.20;;;;;;;6.26;100.00;162203.06;5073618;28;20016;-57
2023/05/19 04:23:25;;;;;;;19.77;12.43;;;;;;;6.31;100.00;162216.50;5071143;28;20024;-58
2023/05/19 04:25:52;;;;;;;21.33;13.32;;;;;;;6.35;100.00;162227.28;5073385;28;20031;-62
2023/05/19 04:28:18;;;;;;;23.38;12.02;;;;;;;6.41;100.00;162242.06;5072961;28;20035;-62
2023/05/19 04:30:45;;;;;;;29.40;12.60;;;;;;;6.48;100.00;162259.59;5058371;28;20120;-62
2023/05/19 04:33:11;;;;;;;21.73;11.93;;;;;;;6.51;100.00;162267.69;5053596;28;20025;-62
2023/05/19 04:35:38;;;;;;;18.38;13.10;;;;;;;6.51;100.00;162267.69;5051652;28;20037;-62
2023/05/19 04:38:04;;;;;;;22.73;11.13;;;;;;;6.62;100.00;162297.28;5053160;28;20056;-62
2023/05/19 04:40:29;;;;;;;19.20;10.98;;;;;;;6.66;100.00;162308.03;5053887;28;20546;-62
2023/05/19 04:42:56;;;;;;;33.90;14.10;;;;;;;6.72;100.00;162322.84;5073310;28;20512;-60
2023/05/19 04:45:22;;;;;;;17.80;11.13;;;;;;;6.77;100.00;162336.34;5069052;28;20075;-61
2023/05/19 04:47:47;;;;;;;19.02;9.95;;;;;;;6.82;100.00;162349.78;5073105;28;20028;-61
2023/05/19 04:50:13;;;;;;;20.20;11.23;;;;;;;6.81;100.00;162347.09;5071735;28;20529;-62
2023/05/19 04:52:41;;;;;;;26.50;13.45;;;;;;;6.96;100.00;162386.13;5072917;28;20082;-62
2023/05/19 04:55:06;;;;;;;24.17;12.80;;;;;;;7.07;100.00;162413.06;5071592;28;20060;-61
2023/05/19 04:57:32;;;;;;;16.30;12.95;;;;;;;7.13;100.00;162429.22;5072860;28;20063;-62
2023/05/19 04:59:58;;;;;;;16.05;11.57;;;;;;;7.21;100.00;162450.78;5064450;28;20094;-61
2023/05/19 05:02:26;;;;;;;21.63;10.48;;;;;;;7.28;100.00;162468.31;5072791;28;20078;-59
2023/05/19 05:04:55;;;;;;;20.40;11.57;;;;;;;7.35;100.00;162485.78;5071723;28;20435;-61
2023/05/19 05:07:21;;;;;;;14.65;10.00;;;;;;;7.39;100.00;162496.59;5070841;28;20478;-59
2023/05/19 05:09:47;;;;;;;34.17;12.27;;;;;;;7.41;100.00;162502.00;5069674;28;20043;-59
2023/05/19 05:12:13;;;;;;;20.65;12.98;;;;;;;7.53;100.00;162534.31;5072663;28;20028;-59
2023/05/19 05:14:39;;;;;;;34.47;12.82;;;;;;;7.58;100.00;162547.75;5069919;28;20522;-59
2023/05/19 05:17:05;;;;;;;18.30;8.82;;;;;;;7.67;100.00;162570.66;5070046;28;20129;-59
2023/05/19 05:19:31;;;;;;;14.18;10.80;;;;;;;7.71;100.00;162580.09;5068672;28;20049;-59
2023/05/19 05:21:56;;;;;;;13.82;9.75;;;;;;;7.80;100.00;162604.34;5072119;28;20076;-59
2023/05/19 05:24:22;;;;;;;18.83;9.55;;;;;;;7.86;100.00;162620.50;5064887;28;20410;-59
2023/05/19 05:26:47;;;;;;;15.68;9.68;;;;;;;7.93;100.00;162638.03;5062510;28;20021;-59
2023/05/19 05:29:13;;;;;;;15.48;9.43;;;;;;;7.99;100.00;162654.19;5051205;28;20184;-59
2023/05/19 05:31:38;;;;;;;17.67;10.05;;;;;;;8.10;100.00;162682.50;5057593;28;20394;-59
2023/05/19 05:34:04;;;;;;;14.82;10.35;;;;;;;8.24;100.00;162720.25;5048813;28;20399;-59
2023/05/19 05:36:30;;;;;;;14.35;9.27;;;;;;;8.34;100.00;162744.50;5031432;28;20056;-59
2023/05/19 05:38:56;;;;;;;16.17;7.88;;;;;;;8.47;100.00;162779.59;5037732;28;20059;-59
2023/05/19 05:41:21;;;;;;;16.58;9.65;;;;;;;8.55;100.00;162801.16;5072019;28;20120;-59
2023/05/19 05:43:46;;;;;;;14.68;9.77;;;;;;;8.68;100.00;162833.50;5069300;28;20051;-59
2023/05/19 05:46:12;;;;;;;23.67;10.13;;;;;;;8.79;100.00;162863.19;5070451;28;20081;-60
2023/05/19 05:48:37;;;;;;;12.40;9.23;;;;;;;8.86;100.00;162882.06;5069283;28;20437;-59
2023/05/19 05:51:04;;;;;;;17.02;9.52;;;;;;;9.04;100.00;162929.25;5051935;28;20025;-59
2023/05/19 05:53:33;;;;;;;26.02;8.75;;;;;;;9.16;100.00;162960.28;5048465;28;20032;-59
2023/05/19 05:55:59;;;;;;;15.27;8.43;;;;;;;9.28;100.00;162989.91;5051360;28;20067;-59
2023/05/19 05:58:24;;;;;;;16.23;8.65;;;;;;;9.28;100.00;162991.31;5050129;28;20052;-59
2023/05/19 06:00:52;;;;;;;19.40;8.10;;;;;;;9.42;100.00;163027.69;5054603;28;20040;-59
2023/05/19 06:03:23;;;;;;;11.13;8.30;;;;;;;9.57;100.00;163065.50;5071581;28;20115;-59
2023/05/19 06:05:48;;;;;;;11.45;7.07;;;;;;;9.76;100.00;163116.75;5069501;28;20112;-59
2023/05/19 06:08:13;;;;;;;8.30;6.93;;;;;;;9.98;100.00;163173.41;5060014;28;20025;-60
2023/05/19 06:10:40;;;;;;;24.10;8.77;;;;;;;10.16;100.00;163220.63;5049759;28;20040;-59
2023/05/19 06:13:05;;;;;;;11.55;7.15;;;;;;;10.39;100.00;163281.38;5051584;28;20096;-59
2023/05/19 06:15:31;;;;;;;8.18;5.93;;;;;;;10.53;100.00;163316.53;5059876;28;20043;-59
2023/05/19 06:17:56;;;;;;;11.80;5.63;;;;;;;10.70;100.00;163362.38;5051305;28;20658;-59
2023/05/19 06:20:22;;;;;;;14.68;7.40;;;;;;;10.72;100.00;163367.78;5048341;28;20411;-59
2023/05/19 06:22:47;;;;;;;8.35;6.15;;;;;;;10.82;100.00;163392.09;5049208;28;20554;-59
2023/05/19 06:25:12;;;;;;;12.35;5.90;;;;;;;10.82;100.00;163392.09;5062376;28;20423;-59
2023/05/19 06:27:38;;;;;;;10.18;6.78;;;;;;;11.06;100.00;163456.88;5070768;28;20138;-59
2023/05/19 06:30:03;;;;;;;11.48;5.57;;;;;;;11.22;100.00;163498.75;5068969;28;20411;-59
2023/05/19 06:32:29;;;;;;;11.15;5.50;;;;;;;11.29;100.00;163516.28;5070924;28;20028;-59
2023/05/19 06:34:54;;;;;;;9.63;5.57;;;;;;;11.42;100.00;163551.44;5058489;28;20483;-59
2023/05/19 06:37:24;;;;;;;9.23;5.30;;;;;;;11.86;100.00;163664.91;5070686;28;20028;-59
2023/05/19 06:39:52;;;;;;;9.55;4.63;;;;;;;12.49;100.00;163829.75;5068612;28;20040;-59
2023/05/19 06:42:21;;;;;;;9.93;5.90;;;;;;;13.17;100.00;164009.56;5070842;28;20021;-59
2023/05/19 06:44:50;;;;;;;12.38;4.22;;;;;;;13.93;100.00;164208.38;5068615;28;20512;-59
2023/05/19 06:47:16;;;;;;;9.30;5.82;;;;;;;14.56;100.00;164373.38;5070823;28;20070;-59
2023/05/19 06:49:42;;;;;;;13.23;4.45;;;;;;;15.08;100.00;164508.75;5068778;28;20488;-59
2023/05/19 06:52:07;;;;;;;8.68;3.60;;;;;;;15.58;100.00;164638.75;5068538;28;20026;-60
2023/05/19 06:54:33;;;;;;;8.82;3.83;;;;;;;16.18;100.00;164798.56;5068370;28;20040;-59
2023/05/19 06:56:58;;;;;;;6.53;3.25;;;;;;;16.65;100.00;164921.84;5065979;28;20086;-59
2023/05/19 06:59:23;;;;;;;9.18;3.28;;;;;;;16.94;100.00;164996.41;5060186;28;20039;-60
2023/05/19 07:01:48;;;;;;;13.43;3.85;;;;;;;16.93;100.00;164993.69;5070252;28;20068;-59
2023/05/19 07:04:14;;;;;;;4.45;2.50;;;;;;;16.60;100.00;164906.91;5061769;28;20048;-60
2023/05/19 07:06:39;;;;;;;4.45;3.20;;;;;;;16.26;100.00;164817.53;5049471;28;20021;-60
2023/05/19 07:09:05;;;;;;;8.25;3.78;;;;;;;15.96;100.00;164739.00;5051150;28;20045;-59
2023/05/19 07:11:30;;;;;;;7.35;4.18;;;;;;;15.50;100.00;164619.78;5050186;28;20021;-59
2023/05/19 07:13:56;;;;;;;5.00;3.40;;;;;;;15.32;100.00;164571.03;5048732;28;20051;-60
2023/05/19 07:16:21;;;;;;;4.70;2.95;;;;;;;15.39;100.00;164591.34;5050269;28;20078;-59
2023/05/19 07:18:46;;;;;;;8.38;3.92;;;;;;;15.39;100.00;164589.97;5048768;28;20037;-60
2023/05/19 07:21:11;;;;;;;5.45;3.05;;;;;;;15.47;100.00;164611.66;5053007;28;20028;-60
2023/05/19 07:23:37;;;;;;;6.35;4.05;;;;;;;15.64;100.00;164654.97;5068619;28;20017;-59
2023/05/19 07:26:02;;;;;;;6.68;3.53;;;;;;;15.54;100.00;164630.59;5070235;28;20464;-59
2023/05/19 07:28:27;;;;;;;9.30;3.42;;;;;;;15.44;100.00;164603.56;5067634;28;20033;-59
2023/05/19 07:30:53;;;;;;;7.32;2.60;;;;;;;15.12;100.00;164518.22;5066609;28;20040;-59
2023/05/19 07:33:18;;;;;;;9.30;3.83;;;;;;;14.98;100.00;164483.06;5068145;28;20021;-59
2023/05/19 07:35:45;;;;;;;6.60;3.42;;;;;;;15.03;100.00;164496.63;5067877;28;20036;-60
2023/05/19 07:38:10;;;;;;;9.02;5.15;;;;;;;15.14;100.00;164525.03;5073459;28;20027;-60
2023/05/19 07:40:36;;;;;;;10.88;3.30;;;;;;;15.14;100.00;164523.66;5072340;28;20041;-60
2023/05/19 07:43:01;;;;;;;8.32;3.10;;;;;;;15.15;100.00;164527.72;5072854;28;20029;-59
2023/05/19 07:45:26;;;;;;;2.83;2.58;;;;;;;15.34;100.00;164577.78;5071346;28;20105;-60
2023/05/19 07:47:53;;;;;;;8.30;3.45;;;;;;;15.21;100.00;164544.00;5072956;28;20049;-60
2023/05/19 07:50:18;;;;;;;12.82;3.08;;;;;;;15.28;100.00;164560.22;5060679;28;20564;-60
2023/05/19 07:52:44;;;;;;;8.52;3.60;;;;;;;15.35;100.00;164579.16;5054081;28;20021;-60
2023/05/19 07:55:10;;;;;;;6.72;3.90;;;;;;;15.53;100.00;164626.56;5059602;28;20420;-60
2023/05/19 07:57:36;;;;;;;7.43;3.55;;;;;;;15.62;100.00;164650.94;5054632;28;20060;-59
2023/05/19 08:00:01;;;;;;;6.03;3.08;;;;;;;15.53;100.00;164627.88;5061216;28;20040;-59
2023/05/19 08:02:26;;;;;;;5.28;2.20;;;;;;;15.63;100.00;164653.66;5072580;28;20486;-59
2023/05/19 08:04:52;;;;;;;10.18;4.88;;;;;;;15.76;100.00;164687.47;5070783;28;20048;-59
2023/05/19 08:07:18;;;;;;;6.57;3.10;;;;;;;16.02;100.00;164755.22;5072910;28;20028;-60
2023/05/19 08:09:43;;;;;;;7.53;3.85;;;;;;;16.36;100.00;164843.25;5071019;28;20048;-60
2023/05/19 08:12:08;;;;;;;5.47;3.67;;;;;;;16.29;100.00;164825.63;5073447;28;20032;-60
2023/05/19 08:14:34;;;;;;;9.05;3.00;;;;;;;16.32;100.00;164833.78;5071152;28;20515;-60
2023/05/19 08:16:59;;;;;;;11.30;4.88;;;;;;;16.53;100.00;164887.94;5072887;28;20435;-60
2023/05/19 08:19:25;;;;;;;5.43;2.75;;;;;;;16.37;100.00;164847.31;5071665;28;20086;-60
2023/05/19 08:21:51;;;;;;;5.53;4.18;;;;;;;16.47;100.00;164873.03;5073396;28;20099;-60
2023/05/19 08:24:16;;;;;;;16.73;4.63;;;;;;;16.44;100.00;164866.28;5071059;28;20399;-60
2023/05/19 08:26:43;;;;;;;17.35;4.20;;;;;;;16.66;100.00;164923.16;5072486;28;20025;-59
2023/05/19 08:29:08;;;;;;;10.90;3.35;;;;;;;16.28;100.00;164822.91;5071386;28;20039;-60
2023/05/19 08:31:33;;;;;;;9.07;4.38;;;;;;;16.31;100.00;164831.06;5072616;28;20032;-60
2023/05/19 08:33:59;;;;;;;9.65;3.55;;;;;;;16.42;100.00;164859.50;5071267;28;20045;-59
2023/05/19 08:36:24;;;;;;;13.48;3.33;;;;;;;16.69;100.00;164931.31;5073082;28;20039;-60
2023/05/19 08:38:50;;;;;;;11.05;3.10;;;;;;;16.94;100.00;164996.41;5071011;28;20036;-60
2023/05/19 08:41:16;;;;;;;5.85;3.17;;;;;;;17.19;100.00;165061.41;5073349;28;20033;-60
2023/05/19 08:43:41;;;;;;;6.97;2.72;;;;;;;17.51;100.00;165145.44;5071308;28;20032;-60
2023/05/19 08:46:10;;;;;;;8.35;3.35;;;;;;;17.51;100.00;165145.44;5073161;28;20070;-60
2023/05/19 08:48:40;;;;;;;9.07;4.25;;;;;;;17.40;100.00;165118.31;5069838;28;20391;-60
2023/05/19 08:51:16;;;;;;;11.18;3.72;;;;;;;17.46;100.00;165131.91;5068836;28;20025;-60
2023/05/19 08:53:47;;;;;;;5.93;2.92;;;;;;;-146.58;100.00;69501.63;5070166;28;20535;-60
2023/05/19 08:56:20;;;;;;;7.80;3.72;;;;;;;-146.58;100.00;69501.63;5071651;28;20028;-60
2023/05/19 08:58:48;;;;;;;10.07;4.00;;;;;;;-146.58;100.00;69501.63;5071437;28;20044;-60
2023/05/19 09:01:17;;;;;;;5.97;2.25;;;;;;;-146.58;100.00;69501.63;5072529;28;20040;-61
2023/05/19 09:03:43;;;;;;;7.88;2.83;;;;;;;-146.58;100.00;69501.63;5070389;28;20505;-60
2023/05/19 09:06:13;;;;;;;4.80;1.83;;;;;;;-146.58;100.00;69501.63;5072225;28;20024;-60
2023/05/19 09:08:42;;;;;;;9.40;2.28;;;;;;;17.46;100.00;165131.91;5071259;28;20032;-60
2023/05/19 09:11:08;;;;;;;6.38;2.28;;;;;;;17.46;100.00;165131.91;5072085;28;20107;-60
2023/05/19 09:13:33;;;;;;;3.80;1.60;;;;;;;-146.58;100.00;69501.63;5070024;28;20029;-60
2023/05/19 09:15:59;;;;;;;6.75;2.50;;;;;;;-146.58;100.00;69501.63;5072461;28;20383;-60
2023/05/19 09:18:25;;;;;;;13.02;3.38;;;;;;;-146.58;100.00;69501.63;5071967;28;20020;-60
2023/05/19 09:20:58;;;;;;;8.57;2.80;;;;;;;-146.58;100.00;69501.63;5070658;28;20108;-60
2023/05/19 09:23:27;;;;;;;5.50;2.67;;;;;;;-146.58;100.00;69501.63;5072307;28;20024;-60
2023/05/19 09:25:53;;;;;;;9.05;3.05;;;;;;;18.52;100.00;165412.59;5070519;28;20036;-61
2023/05/19 09:28:35;;;;;;;5.93;2.42;;;;;;;18.51;100.00;165408.47;5072320;28;20419;-60
2023/05/19 09:31:10;;;;;;;7.30;2.50;;;;;;;18.78;100.00;165479.03;5070720;28;20502;-60
2023/05/19 09:33:41;;;;;;;9.23;3.08;;;;;;;18.66;100.00;165449.16;5069538;28;20024;-60
2023/05/19 09:36:10;;;;;;;7.53;2.80;;;;;;;18.69;100.00;165456.00;5072280;28;20052;-60
2023/05/19 09:38:36;;;;;;;8.60;3.20;;;;;;;18.62;100.00;165438.34;5070417;28;20024;-60
2023/05/19 09:41:03;;;;;;;5.90;3.08;;;;;;;18.69;100.00;165457.31;5071893;28;20028;-60
2023/05/19 09:43:30;;;;;;;5.95;1.80;;;;;;;18.77;100.00;165476.31;5070309;28;20027;-60
2023/05/19 09:46:06;;;;;;;6.38;2.00;;;;;;;18.66;100.00;165449.16;5062928;28;20024;-60
2023/05/19 09:48:33;;;;;;;8.65;3.72;;;;;;;18.36;100.00;165370.50;5068006;28;20374;-60
2023/05/19 09:50:59;;;;;;;5.93;2.13;;;;;;;18.37;100.00;165371.91;5071488;28;20039;-60
2023/05/19 09:53:25;;;;;;;9.40;2.75;;;;;;;18.03;100.00;165283.75;5071749;28;20436;-60
2023/05/19 09:55:56;;;;;;;6.28;2.72;;;;;;;18.33;100.00;165361.03;5069192;28;20044;-60
2023/05/19 09:58:23;;;;;;;6.25;2.17;;;;;;;18.46;100.00;165396.31;5071726;28;20032;-60
2023/05/19 10:00:49;;;;;;;5.97;2.38;;;;;;;18.62;100.00;165438.34;5069401;28;20060;-62
2023/05/19 10:03:16;;;;;;;6.50;3.92;;;;;;;18.73;100.00;165465.47;5070918;28;20075;-62
2023/05/19 10:05:42;;;;;;;6.20;2.80;;;;;;;18.77;100.00;165476.31;5069783;28;20033;-61
2023/05/19 10:08:09;;;;;;;4.75;3.35;;;;;;;18.92;100.00;165517.06;5070934;28;20505;-62
2023/05/19 10:10:36;;;;;;;6.75;1.80;;;;;;;19.44;100.00;165652.72;5069389;28;20051;-61
2023/05/19 10:13:03;;;;;;;4.97;2.15;;;;;;;19.23;100.00;165597.06;5071407;28;20518;-62
2023/05/19 10:15:28;;;;;;;10.50;2.85;;;;;;;19.90;100.00;165774.88;5069033;28;20716;-62
2023/05/19 10:17:55;;;;;;;3.78;2.00;;;;;;;20.51;100.00;165935.06;5070740;28;20032;-62
2023/05/19 10:20:20;;;;;;;5.00;2.33;;;;;;;20.53;100.00;165940.44;5056068;28;20049;-62
2023/05/19 10:22:47;;;;;;;6.82;1.90;;;;;;;20.51;100.00;165935.06;5053502;28;20647;-61
2023/05/19 10:25:14;;;;;;;6.97;2.60;;;;;;;20.74;100.00;165996.19;5063765;28;20403;-61
2023/05/19 10:27:48;;;;;;;6.80;2.90;;;;;;;19.79;100.00;165744.97;5066186;28;20024;-61
2023/05/19 10:30:17;;;;;;;6.55;3.28;;;;;;;20.16;100.00;165842.72;5069248;28;20121;-60
2023/05/19 10:32:45;;;;;;;6.72;2.75;;;;;;;20.23;100.00;165861.72;5070686;28;20032;-61
2023/05/19 10:35:10;;;;;;;6.68;3.88;;;;;;;20.40;100.00;165905.16;5069164;28;20439;-60
2023/05/19 10:38:08;;;;;;;5.57;2.55;;;;;;;20.39;100.00;165902.44;5070104;28;20111;-60
2023/05/19 10:40:39;;;;;;;;;;;;;;;20.80;100.00;166011.13;5069426;28;20407;-60
2023/05/19 10:43:26;;;;;;;5.28;2.05;;;;;;;20.84;100.00;166021.97;5069895;28;19912;-60
2023/05/19 10:45:53;;;;;;;10.07;2.25;;;;;;;21.01;100.00;166065.44;5069337;28;20072;-60
2023/05/19 10:48:20;;;;;;;3.10;1.65;;;;;;;20.99;100.00;166059.97;5070882;28;20074;-61
2023/05/19 10:50:46;;;;;;;5.88;3.08;;;;;;;20.89;100.00;166035.53;5068997;28;20195;-60
2023/05/19 10:53:21;;;;;;;19.73;3.50;;;;;;;20.69;100.00;165982.56;5070522;28;20031;-61
2023/05/19 10:55:57;;;;;;;7.57;2.65;;;;;;;20.87;100.00;166030.13;5068384;28;20052;-60
2023/05/19 10:58:36;;;;;;;8.02;2.20;;;;;;;20.79;100.00;166008.41;5071002;28;20109;-60
2023/05/19 11:01:07;;;;;;;6.95;2.08;;;;;;;20.29;100.00;165878.00;5068907;28;20128;-60
2023/05/19 11:03:43;;;;;;;7.55;2.17;;;;;;;19.96;100.00;165791.16;5069128;28;20032;-61
2023/05/19 11:06:31;;;;;;;7.00;2.60;;;;;;;19.93;100.00;165781.66;5070969;28;20370;-60
2023/05/19 11:09:00;;;;;;;5.05;3.40;;;;;;;19.54;100.00;165678.47;5069796;28;20037;-60
2023/05/19 11:11:43;;;;;;;5.00;2.80;;;;;;;19.70;100.00;165720.53;5069660;28;20024;-60
2023/05/19 11:14:10;;;;;;;7.80;3.47;;;;;;;20.17;100.00;165845.44;5069449;28;20100;-60
2023/05/19 11:16:35;;;;;;;7.13;2.88;;;;;;;20.51;100.00;165935.06;5070551;28;20514;-60